Time;durP1;ratioP1;P1;durP2;ratioP2;P2;SDS_P1;SDS_P2;PMS_P1;PMS_P2;Temp;Humidity;BMP_temperature;BMP_pressure;BME280_temperature;BME280_humidity;BME280_pressure;Samples;Min_cycle;Max_cycle;Signal;HPM_P1;HPM_P2
2022/01/20 00:00:16;;;;;;;3.50;2.20;;;24.20;42.60;;;;;;5022199;28;88475;-65
2022/01/20 00:02:45;;;;;;;4.43;2.57;;;24.20;42.50;;;;;;5004922;28;89642;-65
2022/01/20 00:05:31;;;;;;;4.83;2.50;;;24.20;42.50;;;;;;5003526;28;88951;-65
2022/01/20 00:08:13;;;;;;;5.73;2.60;;;24.20;42.40;;;;;;5010274;28;88377;-65
2022/01/20 00:27:19;;;;;;;2.73;1.90;;;23.60;42.40;;;;;;5001865;28;88504;-65
2022/01/20 00:32:46;;;;;;;2.53;1.90;;;23.50;42.60;;;;;;4997431;27;88746;-67
2022/01/20 00:35:19;;;;;;;2.50;1.50;;;23.40;42.60;;;;;;5000057;28;90336;-66
2022/01/20 00:37:49;;;;;;;1.97;1.43;;;23.30;42.60;;;;;;5002151;28;89119;-67
2022/01/20 00:40:21;;;;;;;2.67;1.60;;;23.30;42.70;;;;;;4999045;28;88554;-66
2022/01/20 00:42:49;;;;;;;4.13;2.13;;;23.20;42.70;;;;;;5004032;28;88502;-66
2022/01/20 00:45:17;;;;;;;3.53;1.40;;;23.10;42.70;;;;;;5001003;28;90904;-65
2022/01/20 00:47:45;;;;;;;4.47;1.70;;;23.00;42.70;;;;;;5003412;28;90194;-66
2022/01/20 00:50:14;;;;;;;2.87;1.40;;;23.00;42.90;;;;;;5005176;28;88946;-65
2022/01/20 00:52:41;;;;;;;3.83;1.87;;;22.90;42.80;;;;;;5009061;28;88554;-65
2022/01/20 00:55:11;;;;;;;4.80;1.87;;;22.90;42.90;;;;;;5003810;28;91095;-66
2022/01/20 00:57:39;;;;;;;3.00;1.30;;;22.80;42.90;;;;;;5007114;28;89062;-65
2022/01/20 01:00:08;;;;;;;2.07;1.10;;;22.80;43.00;;;;;;5003839;28;88615;-66
2022/01/20 01:02:39;;;;;;;3.40;2.00;;;22.80;43.00;;;;;;5004968;28;88766;-65
2022/01/20 01:05:08;;;;;;;3.17;1.40;;;22.80;43.10;;;;;;5015540;28;89782;-65
2022/01/20 01:07:47;;;;;;;4.07;1.33;;;22.70;43.00;;;;;;5018862;28;89191;-65
2022/01/20 01:10:17;;;;;;;3.17;1.50;;;22.60;43.00;;;;;;5020883;28;89764;-65
2022/01/20 01:12:50;;;;;;;3.00;1.47;;;22.60;43.10;;;;;;5019888;28;88663;-65
2022/01/20 01:15:21;;;;;;;2.77;1.37;;;22.60;43.20;;;;;;5009854;28;89556;-65
2022/01/20 01:20:56;;;;;;;2.80;1.37;;;22.60;43.30;;;;;;5010092;28;88864;-66
2022/01/20 01:23:23;;;;;;;3.20;1.40;;;22.50;43.30;;;;;;5007674;28;88631;-65
2022/01/20 01:25:55;;;;;;;3.77;1.53;;;22.40;43.30;;;;;;5010576;28;90986;-65
2022/01/20 01:28:25;;;;;;;2.13;1.00;;;22.40;43.30;;;;;;5001002;28;89157;-65
2022/01/20 01:31:17;;;;;;;3.43;1.20;;;22.40;43.40;;;;;;5004298;28;88221;-66
2022/01/20 01:33:53;;;;;;;1.23;1.03;;;22.30;43.40;;;;;;5018409;28;88417;-65
2022/01/20 01:36:23;;;;;;;2.67;1.10;;;22.20;43.30;;;;;;5002170;28;88624;-66
2022/01/20 01:38:51;;;;;;;1.97;1.07;;;22.20;43.40;;;;;;5012495;28;89077;-65
2022/01/20 01:41:29;;;;;;;3.13;1.20;;;22.20;43.40;;;;;;5016925;28;88424;-65
2022/01/20 01:44:01;;;;;;;3.60;1.27;;;22.10;43.40;;;;;;5000147;28;88603;-65
2022/01/20 01:46:29;;;;;;;2.50;1.10;;;22.10;43.40;;;;;;5009592;28;90018;-65
2022/01/20 01:48:58;;;;;;;2.20;1.13;;;22.10;43.40;;;;;;5013107;28;88577;-66
2022/01/20 01:51:26;;;;;;;2.77;1.40;;;22.10;43.40;;;;;;5018149;28;88556;-66
2022/01/20 01:53:54;;;;;;;1.47;0.90;;;22.00;43.40;;;;;;5003040;28;88696;-65
2022/01/20 01:56:23;;;;;;;2.20;1.30;;;22.00;43.40;;;;;;5013018;28;90754;-65
2022/01/20 01:58:51;;;;;;;1.87;1.40;;;22.00;43.40;;;;;;5019978;28;89038;-65
2022/01/20 02:01:19;;;;;;;1.80;0.90;;;22.00;43.50;;;;;;5010585;28;89709;-65
2022/01/20 02:03:57;;;;;;;2.40;1.43;;;21.90;43.40;;;;;;5009609;28;88504;-65
2022/01/20 02:06:46;;;;;;;2.93;1.13;;;21.90;43.50;;;;;;5005687;28;89241;-65
2022/01/20 02:09:29;;;;;;;2.40;1.27;;;21.80;43.40;;;;;;5018007;27;90057;-65
2022/01/20 02:17:59;;;;;;;1.83;1.23;;;21.80;43.50;;;;;;5003238;28;90650;-66
2022/01/20 02:20:30;;;;;;;3.53;1.50;;;21.70;43.50;;;;;;5001875;28;89343;-65
2022/01/20 02:22:58;;;;;;;2.37;1.23;;;21.60;43.40;;;;;;5001426;28;88889;-65
2022/01/20 02:25:27;;;;;;;2.97;1.50;;;21.60;43.50;;;;;;5004846;28;88519;-65
2022/01/20 02:27:58;;;;;;;2.27;1.30;;;21.60;43.50;;;;;;5015103;28;89052;-65
2022/01/20 02:30:26;;;;;;;3.67;1.30;;;21.60;43.50;;;;;;5018532;28;88256;-66
2022/01/20 02:32:55;;;;;;;1.93;1.00;;;21.60;43.60;;;;;;4999202;28;88452;-65
2022/01/20 02:35:25;;;;;;;2.57;1.43;;;21.50;44.20;;;;;;5015860;28;88649;-66
2022/01/20 02:37:59;;;;;;;2.33;0.97;;;21.50;43.50;;;;;;5008652;28;90636;-65
2022/01/20 02:45:54;;;;;;;1.97;1.17;;;21.50;43.60;;;;;;5002341;28;88569;-65
2022/01/20 02:48:22;;;;;;;2.00;1.07;;;21.50;43.60;;;;;;4999608;28;89293;-65
2022/01/20 02:50:50;;;;;;;2.90;1.20;;;21.40;43.60;;;;;;4999171;28;90096;-65
2022/01/20 02:53:19;;;;;;;2.77;1.00;;;21.40;43.70;;;;;;5004840;28;89695;-65
2022/01/20 02:55:47;;;;;;;4.53;1.30;;;21.40;43.70;;;;;;5011088;28;88542;-65
2022/01/20 02:58:15;;;;;;;2.37;1.10;;;21.30;43.60;;;;;;4999317;28;89616;-65
2022/01/20 03:00:43;;;;;;;1.80;0.90;;;21.40;43.70;;;;;;5004833;28;89040;-65
2022/01/20 03:03:12;;;;;;;2.20;1.27;;;21.30;43.60;;;;;;5015394;28;89064;-65
2022/01/20 03:05:40;;;;;;;2.03;1.00;;;21.30;43.70;;;;;;5018606;28;88462;-66
2022/01/20 03:08:08;;;;;;;2.47;1.30;;;21.30;43.70;;;;;;4999395;28;90756;-65
2022/01/20 03:10:38;;;;;;;1.57;0.87;;;21.30;43.70;;;;;;5008685;28;89076;-65
2022/01/20 03:13:06;;;;;;;3.53;0.87;;;21.30;43.70;;;;;;5008648;28;90401;-65
2022/01/20 03:15:35;;;;;;;1.67;0.83;;;21.20;43.70;;;;;;5013632;28;89415;-65
2022/01/20 03:18:04;;;;;;;2.27;1.00;;;21.20;43.70;;;;;;5003587;28;89831;-65
2022/01/20 03:20:33;;;;;;;2.80;0.80;;;21.20;43.70;;;;;;5007701;28;89680;-65
2022/01/20 03:23:01;;;;;;;2.37;1.13;;;21.20;43.70;;;;;;5007260;28;88496;-65
2022/01/20 03:25:29;;;;;;;2.97;1.03;;;21.20;43.70;;;;;;5003162;28;88746;-65
2022/01/20 03:27:58;;;;;;;5.37;1.10;;;21.20;43.70;;;;;;5014861;28;89466;-65
2022/01/20 03:30:26;;;;;;;1.97;0.97;;;21.20;44.40;;;;;;5016196;28;90210;-65
2022/01/20 03:32:54;;;;;;;0.93;0.83;;;21.10;43.70;;;;;;5021493;28;89370;-65
2022/01/20 03:35:22;;;;;;;2.63;0.93;;;21.10;43.70;;;;;;5022619;28;88490;-65
2022/01/20 03:37:50;;;;;;;1.03;0.57;;;21.10;43.70;;;;;;5021816;28;89593;-65
2022/01/20 03:40:20;;;;;;;3.03;1.00;;;21.10;43.70;;;;;;5017074;28;90062;-65
2022/01/20 03:42:48;;;;;;;4.43;0.77;;;21.10;44.40;;;;;;5019796;28;89839;-65
2022/01/20 03:45:18;;;;;;;2.57;1.40;;;21.10;43.80;;;;;;5019367;28;88608;-66
2022/01/20 03:47:46;;;;;;;1.07;0.80;;;21.00;43.70;;;;;;5018700;28;90725;-65
2022/01/20 03:52:55;;;;;;;2.53;1.03;;;21.00;43.80;;;;;;5001576;28;89239;-66
2022/01/20 03:55:24;;;;;;;1.70;0.97;;;21.00;43.80;;;;;;5001420;28;88605;-65
2022/01/20 03:57:52;;;;;;;1.13;0.83;;;20.90;43.70;;;;;;5003733;28;89313;-65
2022/01/20 04:00:21;;;;;;;1.90;0.90;;;20.90;43.70;;;;;;5007957;28;90008;-65
2022/01/20 04:02:49;;;;;;;4.13;1.33;;;20.90;43.80;;;;;;5007532;28;88291;-65
2022/01/20 04:05:17;;;;;;;3.53;1.50;;;20.90;43.80;;;;;;5014515;28;89744;-65
2022/01/20 04:07:45;;;;;;;2.73;1.53;;;20.90;43.80;;;;;;5021515;28;90166;-65
2022/01/20 04:10:13;;;;;;;4.90;1.60;;;20.80;43.70;;;;;;5015890;28;88576;-65
2022/01/20 04:12:41;;;;;;;3.13;2.00;;;20.80;43.70;;;;;;5014229;28;89479;-65
2022/01/20 04:15:10;;;;;;;4.17;2.27;;;20.80;43.70;;;;;;5010145;28;88489;-66
2022/01/20 04:17:41;;;;;;;4.77;2.60;;;20.80;43.70;;;;;;5019962;28;89754;-65
2022/01/20 04:20:10;;;;;;;7.30;3.50;;;20.80;43.80;;;;;;5020660;28;91242;-64
2022/01/20 04:22:38;;;;;;;6.70;3.47;;;20.80;43.80;;;;;;5004644;28;88620;-65
2022/01/20 04:25:06;;;;;;;7.10;3.87;;;20.70;43.70;;;;;;5018837;28;88436;-66
2022/01/20 04:27:34;;;;;;;5.37;3.00;;;20.70;43.70;;;;;;5008006;28;93343;-66
2022/01/20 04:30:02;;;;;;;8.27;4.10;;;20.70;43.70;;;;;;5001110;28;93517;-65
2022/01/20 04:32:30;;;;;;;6.83;3.53;;;20.70;43.70;;;;;;5001294;28;88725;-64
2022/01/20 04:34:59;;;;;;;8.03;4.13;;;20.70;43.70;;;;;;5003078;28;88502;-66
2022/01/20 04:37:28;;;;;;;7.57;4.40;;;20.70;43.70;;;;;;5000631;28;90737;-65
2022/01/20 04:39:57;;;;;;;5.60;3.53;;;20.70;43.80;;;;;;5001605;28;88932;-65
2022/01/20 04:42:27;;;;;;;5.70;3.73;;;20.70;43.80;;;;;;5017805;28;88404;-65
2022/01/20 04:44:59;;;;;;;7.23;4.03;;;20.60;43.70;;;;;;5021839;28;88457;-65
2022/01/20 04:47:35;;;;;;;7.60;4.07;;;20.60;43.80;;;;;;5019562;28;89528;-64
2022/01/20 04:58:22;;;;;;;5.50;3.40;;;20.60;43.90;;;;;;5021440;28;89071;-65
2022/01/20 05:00:50;;;;;;;8.53;4.57;;;20.50;43.80;;;;;;5021638;28;90140;-65
2022/01/20 05:03:18;;;;;;;6.27;4.00;;;20.50;43.80;;;;;;5014144;28;88371;-65
2022/01/20 05:05:47;;;;;;;6.07;3.70;;;20.50;43.90;;;;;;5020970;28;88769;-66
2022/01/20 05:08:17;;;;;;;7.03;4.07;;;20.50;43.90;;;;;;5015301;28;89798;-66
2022/01/20 05:10:45;;;;;;;8.63;4.47;;;20.50;43.90;;;;;;5018307;28;89173;-66
2022/01/20 05:13:22;;;;;;;5.17;3.70;;;20.50;43.90;;;;;;5005809;28;88878;-65
2022/01/20 05:15:50;;;;;;;6.87;3.90;;;20.50;43.90;;;;;;5000884;28;88628;-66
2022/01/20 05:18:18;;;;;;;5.90;3.60;;;20.40;43.90;;;;;;5002225;28;91820;-65
2022/01/20 05:20:48;;;;;;;7.20;3.37;;;20.40;43.90;;;;;;5019270;28;90249;-65
2022/01/20 05:23:16;;;;;;;5.63;3.70;;;20.40;43.90;;;;;;5002984;28;88793;-65
2022/01/20 05:25:44;;;;;;;5.53;3.17;;;20.40;43.90;;;;;;5000879;28;88719;-65
2022/01/20 05:28:12;;;;;;;8.03;3.73;;;20.40;43.90;;;;;;5000444;28;88586;-65
2022/01/20 05:30:40;;;;;;;6.07;3.30;;;20.40;44.00;;;;;;5002336;28;90011;-65
2022/01/20 05:33:08;;;;;;;7.33;3.37;;;20.40;44.60;;;;;;5014415;28;88454;-65
2022/01/20 05:35:36;;;;;;;8.00;4.30;;;20.40;44.00;;;;;;5009027;28;88632;-65
2022/01/20 05:38:06;;;;;;;5.00;3.03;;;20.30;43.90;;;;;;5020127;28;90610;-65
2022/01/20 05:40:35;;;;;;;6.13;2.97;;;20.30;43.90;;;;;;5002928;28;89177;-65
2022/01/20 05:43:03;;;;;;;3.60;2.83;;;20.30;43.90;;;;;;5000278;28;88411;-64
2022/01/20 05:45:31;;;;;;;6.77;3.33;;;20.30;43.90;;;;;;5003702;28;88684;-64
2022/01/20 05:48:09;;;;;;;4.63;2.90;;;20.40;44.10;;;;;;5017993;28;89352;-65
2022/01/20 05:50:37;;;;;;;6.53;3.63;;;20.30;44.00;;;;;;5019652;28;90369;-65
2022/01/20 05:53:07;;;;;;;4.47;3.23;;;20.20;43.90;;;;;;5019636;28;88258;-65
2022/01/20 05:55:35;;;;;;;5.17;2.83;;;20.20;44.00;;;;;;5016144;28;88519;-65
2022/01/20 05:58:04;;;;;;;5.00;3.03;;;20.20;44.00;;;;;;5009374;28;90732;-65
2022/01/20 06:00:32;;;;;;;6.03;2.97;;;20.20;44.10;;;;;;5017274;28;89194;-66
2022/01/20 06:05:46;;;;;;;4.97;3.40;;;20.20;44.10;;;;;;5008744;28;88704;-63
2022/01/20 06:08:15;;;;;;;4.80;2.83;;;20.10;44.00;;;;;;5010131;28;91069;-65
2022/01/20 06:10:43;;;;;;;6.27;2.80;;;20.10;44.00;;;;;;5003435;28;90551;-65
2022/01/20 06:13:11;;;;;;;4.07;2.50;;;20.10;44.10;;;;;;5018027;28;89766;-65
2022/01/20 06:15:39;;;;;;;3.40;2.13;;;20.10;44.70;;;;;;5016547;28;88706;-66
2022/01/20 06:18:07;;;;;;;5.27;2.73;;;20.10;44.10;;;;;;5007295;28;89550;-65
2022/01/20 06:20:36;;;;;;;4.87;2.60;;;20.10;44.20;;;;;;5003505;28;89154;-63
2022/01/20 06:23:05;;;;;;;10.17;3.03;;;20.10;44.20;;;;;;5008545;28;88899;-63
2022/01/20 06:25:35;;;;;;;3.30;2.60;;;20.10;44.20;;;;;;5012737;28;88628;-63
2022/01/20 06:28:03;;;;;;;4.47;2.30;;;20.00;44.10;;;;;;5007352;28;94193;-63
2022/01/20 06:30:32;;;;;;;4.00;2.57;;;20.10;44.20;;;;;;4999413;28;90312;-63
2022/01/20 06:33:00;;;;;;;3.53;2.07;;;20.00;44.10;;;;;;5014878;28;88496;-63
2022/01/20 06:35:28;;;;;;;4.00;2.20;;;20.00;44.10;;;;;;5018538;28;88488;-63
2022/01/20 06:37:56;;;;;;;4.60;2.67;;;20.00;44.20;;;;;;5001070;28;90343;-63
2022/01/20 06:40:24;;;;;;;3.50;2.10;;;20.00;44.20;;;;;;5005163;28;90042;-64
2022/01/20 06:42:54;;;;;;;4.43;2.40;;;20.00;44.20;;;;;;5002554;28;88929;-62
2022/01/20 06:45:23;;;;;;;5.27;2.33;;;20.00;44.80;;;;;;5013693;28;90402;-64
2022/01/20 06:47:51;;;;;;;4.17;2.63;;;20.00;44.20;;;;;;5017142;28;90206;-63
2022/01/20 06:50:19;;;;;;;4.33;2.47;;;20.00;44.20;;;;;;5016775;28;89686;-65
2022/01/20 06:52:47;;;;;;;6.17;2.40;;;20.00;44.20;;;;;;5003336;28;89073;-65
2022/01/20 06:55:15;;;;;;;4.23;1.57;;;20.00;44.20;;;;;;5005873;28;88675;-65
2022/01/20 06:57:43;;;;;;;4.60;2.17;;;20.00;44.90;;;;;;5000184;28;93755;-65
2022/01/20 07:00:14;;;;;;;3.97;1.80;;;19.90;44.10;;;;;;4999378;28;89210;-63
2022/01/20 07:02:43;;;;;;;3.13;2.10;;;19.90;44.20;;;;;;5013047;28;90528;-63
2022/01/20 07:05:12;;;;;;;5.63;2.50;;;19.90;44.20;;;;;;5007940;28;88423;-63
2022/01/20 07:07:40;;;;;;;4.60;2.17;;;19.90;44.90;;;;;;4998772;28;90013;-65
2022/01/20 07:10:08;;;;;;;3.53;2.43;;;19.90;44.30;;;;;;5001640;28;92170;-65
2022/01/20 07:12:37;;;;;;;4.60;2.20;;;19.90;44.40;;;;;;5000051;28;88377;-63
2022/01/20 07:15:13;;;;;;;5.07;1.63;;;19.90;44.40;;;;;;5009235;28;88365;-63
2022/01/20 07:17:41;;;;;;;4.20;1.67;;;19.90;44.60;;;;;;5008775;28;89880;-63
2022/01/20 07:20:10;;;;;;;2.57;1.30;;;19.90;44.80;;;;;;5008045;28;90423;-63
2022/01/20 07:22:40;;;;;;;5.57;1.93;;;19.90;44.90;;;;;;5007986;28;88826;-64
2022/01/20 07:25:08;;;;;;;2.20;1.33;;;20.00;45.00;;;;;;5003934;28;88607;-64
2022/01/20 07:27:36;;;;;;;3.27;1.47;;;20.10;45.20;;;;;;4999876;28;90645;-64
2022/01/20 07:30:26;;;;;;;3.43;1.63;;;20.20;45.30;;;;;;5016345;28;91429;-64
2022/01/20 07:32:54;;;;;;;7.97;1.67;;;20.40;45.50;;;;;;5011733;28;88833;-64
2022/01/20 07:35:22;;;;;;;4.97;1.87;;;20.60;45.70;;;;;;5011171;28;88381;-65
2022/01/20 07:37:50;;;;;;;10.80;2.30;;;20.80;45.80;;;;;;4999346;28;89721;-64
2022/01/20 07:40:19;;;;;;;3.90;2.00;;;21.00;46.00;;;;;;4999850;28;89989;-64
2022/01/20 07:42:47;;;;;;;6.50;2.17;;;21.20;46.30;;;;;;4999599;28;89028;-67
2022/01/20 07:45:17;;;;;;;4.47;1.60;;;21.30;46.40;;;;;;5001948;28;88666;-66
2022/01/20 07:47:47;;;;;;;6.00;1.70;;;21.30;46.40;;;;;;5003896;28;89986;-67
2022/01/20 07:50:15;;;;;;;5.33;1.73;;;21.50;46.50;;;;;;5002962;28;93459;-67
2022/01/20 07:52:43;;;;;;;7.07;1.70;;;21.60;46.50;;;;;;5004221;28;88992;-67
2022/01/20 07:55:11;;;;;;;8.13;1.40;;;21.70;46.40;;;;;;5001139;28;89764;-67
2022/01/20 07:57:39;;;;;;;4.93;1.73;;;21.80;46.40;;;;;;5004114;28;89939;-67
2022/01/20 08:00:08;;;;;;;3.17;1.40;;;22.00;46.40;;;;;;5012890;28;89511;-67
2022/01/20 08:02:36;;;;;;;7.60;1.80;;;22.20;46.20;;;;;;5013401;28;88506;-67
2022/01/20 08:05:07;;;;;;;8.23;2.07;;;22.40;46.10;;;;;;5020662;28;88704;-68
2022/01/20 08:07:35;;;;;;;3.20;1.10;;;22.50;46.00;;;;;;5021771;28;90274;-67
2022/01/20 08:10:04;;;;;;;2.97;1.47;;;22.60;45.90;;;;;;5021553;28;90960;-67
2022/01/20 08:12:33;;;;;;;4.50;1.57;;;22.70;45.80;;;;;;5020139;28;89803;-67
2022/01/20 08:15:01;;;;;;;6.47;1.60;;;22.70;45.70;;;;;;5009665;28;88620;-67
2022/01/20 08:17:29;;;;;;;3.80;1.17;;;22.70;45.70;;;;;;5003814;28;90712;-67
2022/01/20 08:19:58;;;;;;;4.83;1.37;;;22.80;45.70;;;;;;5008564;28;91612;-67
2022/01/20 08:22:31;;;;;;;3.63;1.00;;;22.90;45.70;;;;;;5006059;28;90014;-67
2022/01/20 08:25:02;;;;;;;1.97;1.20;;;23.00;45.70;;;;;;5015272;27;88613;-67
2022/01/20 08:27:30;;;;;;;4.30;1.13;;;23.10;45.50;;;;;;5010807;28;90709;-68
2022/01/20 08:29:58;;;;;;;2.30;0.90;;;23.20;45.40;;;;;;5007266;28;89179;-68
2022/01/20 08:32:27;;;;;;;4.57;1.43;;;23.40;45.30;;;;;;5006415;28;89671;-68
2022/01/20 08:34:55;;;;;;;2.23;1.10;;;23.50;45.20;;;;;;5009527;28;88461;-67
2022/01/20 08:37:23;;;;;;;3.37;1.20;;;23.60;45.10;;;;;;5008409;28;90811;-66
2022/01/20 08:39:52;;;;;;;7.07;1.60;;;23.60;45.00;;;;;;5016190;28;90418;-67
2022/01/20 08:42:22;;;;;;;3.83;1.17;;;23.60;44.90;;;;;;5001281;28;89823;-66
2022/01/20 08:44:50;;;;;;;2.50;1.13;;;23.60;44.90;;;;;;5004464;28;88548;-67
2022/01/20 08:47:20;;;;;;;4.13;1.00;;;23.60;44.90;;;;;;5006235;28;92757;-67
2022/01/20 08:49:48;;;;;;;4.13;0.90;;;23.60;44.80;;;;;;5011394;28;90352;-66
2022/01/20 08:52:17;;;;;;;1.90;0.93;;;23.70;44.80;;;;;;5011393;28;88943;-67
2022/01/20 08:54:47;;;;;;;3.43;1.03;;;23.80;44.70;;;;;;5002393;28;89404;-67
2022/01/20 08:57:16;;;;;;;4.80;1.20;;;24.00;44.70;;;;;;5003457;28;90305;-65
2022/01/20 08:59:44;;;;;;;6.77;1.20;;;24.10;44.50;;;;;;5011957;28;88777;-66
2022/01/20 09:02:14;;;;;;;3.27;0.80;;;24.20;44.40;;;;;;5004029;28;88549;-66
2022/01/20 09:04:42;;;;;;;2.17;1.27;;;24.40;44.40;;;;;;5003416;28;88524;-66
2022/01/20 09:07:10;;;;;;;6.50;1.43;;;24.50;44.40;;;;;;5015060;28;90665;-66
2022/01/20 09:09:42;;;;;;;1.80;1.03;;;24.50;44.30;;;;;;5001676;28;89353;-67
2022/01/20 09:15:27;;;;;;;2.10;0.80;;;24.60;44.30;;;;;;5011432;28;91320;-65
2022/01/20 09:17:54;;;;;;;5.67;1.23;;;24.50;44.40;;;;;;5020533;28;89938;-65
2022/01/20 09:20:22;;;;;;;2.37;1.00;;;24.50;44.60;;;;;;5006375;28;89092;-66
2022/01/20 09:22:51;;;;;;;7.20;2.07;;;24.40;44.80;;;;;;5008383;28;89008;-66
2022/01/20 09:25:21;;;;;;;3.80;0.90;;;24.40;44.90;;;;;;5020058;28;88624;-65
2022/01/20 09:27:50;;;;;;;5.03;1.20;;;24.30;45.00;;;;;;5008715;28;90719;-65
2022/01/20 09:30:22;;;;;;;4.40;1.10;;;24.20;45.10;;;;;;5019002;28;89042;-65
2022/01/20 09:32:58;;;;;;;7.77;1.13;;;24.10;45.30;;;;;;5006465;28;89220;-66
2022/01/20 09:35:29;;;;;;;7.10;1.20;;;24.00;45.30;;;;;;5005360;28;88552;-65
2022/01/20 09:37:57;;;;;;;4.00;1.40;;;23.90;45.50;;;;;;5004756;27;89781;-65
2022/01/20 09:40:26;;;;;;;8.13;1.30;;;23.80;45.60;;;;;;5001004;28;90002;-66
2022/01/20 09:42:54;;;;;;;7.07;1.00;;;23.70;45.60;;;;;;5001054;28;89464;-65
2022/01/20 09:45:23;;;;;;;5.90;1.17;;;23.60;45.70;;;;;;5006822;28;89457;-65
2022/01/20 09:47:51;;;;;;;17.20;1.57;;;23.60;45.70;;;;;;5020835;28;90987;-66
2022/01/20 09:50:21;;;;;;;2.73;0.90;;;23.70;45.70;;;;;;5001293;28;91449;-65
2022/01/20 09:52:49;;;;;;;2.17;0.97;;;23.80;45.70;;;;;;5000802;28;88321;-66
2022/01/20 09:55:18;;;;;;;3.70;1.00;;;24.00;45.60;;;;;;5001538;28;88533;-66
2022/01/20 09:57:46;;;;;;;1.90;0.90;;;24.10;45.40;;;;;;5008323;28;93281;-66
2022/01/20 10:00:16;;;;;;;3.90;1.13;;;24.30;45.30;;;;;;5001375;28;90871;-66
2022/01/20 10:02:56;;;;;;;5.50;1.33;;;24.40;45.10;;;;;;5001255;28;88415;-66
2022/01/20 10:05:30;;;;;;;3.97;1.27;;;24.40;44.90;;;;;;5001696;28;88591;-66
2022/01/20 10:08:07;;;;;;;1.17;0.80;;;24.50;44.80;;;;;;5010113;28;89983;-66
2022/01/20 10:10:46;;;;;;;3.93;1.03;;;24.50;44.70;;;;;;5000011;28;92824;-65
2022/01/20 10:13:14;;;;;;;4.33;0.87;;;24.40;44.60;;;;;;5000512;28;88647;-65
2022/01/20 10:15:44;;;;;;;2.43;1.00;;;24.40;44.60;;;;;;5001217;28;88525;-66
2022/01/20 10:18:14;;;;;;;1.73;0.93;;;24.30;44.50;;;;;;5007476;28;90896;-66
2022/01/20 10:20:56;;;;;;;6.40;1.00;;;24.20;44.40;;;;;;5001065;28;89908;-65
2022/01/20 10:23:31;;;;;;;6.93;1.00;;;24.20;44.50;;;;;;5000668;28;89132;-65
2022/01/20 10:26:11;;;;;;;1.50;0.80;;;24.10;44.50;;;;;;5003296;28;88631;-65
2022/01/20 10:28:46;;;;;;;6.20;0.90;;;24.00;44.60;;;;;;5007067;28;89668;-65
2022/01/20 10:31:16;;;;;;;6.53;1.53;;;23.90;44.60;;;;;;5002023;28;89004;-65
2022/01/20 10:33:46;;;;;;;8.13;1.97;;;23.90;44.70;;;;;;5006906;28;90146;-66
2022/01/20 10:36:14;;;;;;;6.73;1.60;;;23.80;44.80;;;;;;5016902;27;88713;-66
2022/01/20 10:38:52;;;;;;;4.10;1.27;;;23.80;44.90;;;;;;5007479;28;92465;-66
2022/01/20 10:41:30;;;;;;;7.17;1.30;;;23.70;45.00;;;;;;5009975;28;89170;-66
2022/01/20 10:44:09;;;;;;;5.43;1.27;;;23.60;45.10;;;;;;4999649;28;88466;-65
2022/01/20 10:46:49;;;;;;;4.00;1.30;;;23.50;45.10;;;;;;5000785;28;88578;-66
2022/01/20 10:49:19;;;;;;;6.53;1.43;;;23.50;45.30;;;;;;5004754;28;93637;-71
2022/01/20 10:51:59;;;;;;;5.30;1.07;;;23.50;45.40;;;;;;5018127;28;88977;-71
2022/01/20 10:54:35;;;;;;;7.53;1.70;;;23.50;45.50;;;;;;5010814;28;88769;-67
2022/01/20 10:57:03;;;;;;;2.03;0.70;;;23.50;45.50;;;;;;5005582;28;88643;-67
2022/01/20 10:59:33;;;;;;;4.77;1.53;;;23.70;45.60;;;;;;5017158;28;90643;-67
2022/01/20 11:02:06;;;;;;;3.10;0.60;;;23.80;45.50;;;;;;5015128;28;90095;-67
2022/01/20 11:04:36;;;;;;;4.87;1.20;;;24.00;45.40;;;;;;5002341;28;88450;-67
2022/01/20 11:07:07;;;;;;;9.03;1.77;;;24.10;45.30;;;;;;5001336;28;88322;-67
2022/01/20 11:09:43;;;;;;;4.40;1.20;;;24.10;45.10;;;;;;5007937;28;90864;-67
2022/01/20 11:12:12;;;;;;;4.17;1.37;;;24.10;45.10;;;;;;5003992;28;89859;-66
2022/01/20 11:14:40;;;;;;;3.10;0.80;;;24.10;45.00;;;;;;5002930;28;88844;-66
2022/01/20 11:17:09;;;;;;;7.63;1.20;;;24.10;45.00;;;;;;5018894;28;88602;-67
2022/01/20 11:19:39;;;;;;;3.90;1.20;;;24.10;45.00;;;;;;5000309;28;90969;-67
2022/01/20 11:22:08;;;;;;;7.27;1.20;;;24.00;45.00;;;;;;5007594;28;89282;-66
2022/01/20 11:24:37;;;;;;;2.33;1.37;;;23.90;44.90;;;;;;5009613;28;88471;-67
2022/01/20 11:27:06;;;;;;;3.47;1.10;;;23.80;44.80;;;;;;5002716;28;88974;-66
2022/01/20 11:29:43;;;;;;;5.07;1.40;;;23.80;44.80;;;;;;4999607;28;89152;-67
2022/01/20 11:32:21;;;;;;;4.80;1.47;;;23.60;44.70;;;;;;5000494;28;88936;-66
2022/01/20 11:34:58;;;;;;;5.40;0.93;;;23.60;45.50;;;;;;5007448;28;91443;-66
2022/01/20 11:37:27;;;;;;;3.00;0.93;;;23.50;44.80;;;;;;5008309;28;88346;-66
2022/01/20 11:40:07;;;;;;;3.53;1.23;;;23.50;44.80;;;;;;5012662;28;89116;-66
2022/01/20 11:42:35;;;;;;;7.67;1.30;;;23.50;45.00;;;;;;5022668;28;88266;-66
2022/01/20 11:45:28;;;;;;;5.30;1.10;;;23.50;44.90;;;;;;5012864;28;88317;-66
2022/01/20 11:47:56;;;;;;;0.80;0.67;;;23.50;44.80;;;;;;5004900;28;88669;-66
2022/01/20 11:50:26;;;;;;;3.47;0.80;;;23.70;44.70;;;;;;5002258;28;89418;-66
2022/01/20 11:52:54;;;;;;;9.57;1.23;;;23.80;44.60;;;;;;5014576;28;90430;-66
2022/01/20 11:55:29;;;;;;;3.63;1.00;;;24.00;44.50;;;;;;5005958;28;88418;-67
2022/01/20 11:57:58;;;;;;;4.80;1.17;;;24.20;44.40;;;;;;5008893;28;88645;-66
2022/01/20 12:00:28;;;;;;;3.13;0.97;;;24.20;44.20;;;;;;5002000;28;89510;-66
2022/01/20 12:02:56;;;;;;;1.83;0.60;;;24.30;44.20;;;;;;5010673;28;89352;-66
2022/01/20 12:05:29;;;;;;;4.67;0.90;;;24.30;44.10;;;;;;5017832;28;92438;-66
2022/01/20 12:08:05;;;;;;;2.57;1.20;;;24.30;44.10;;;;;;5002709;28;88515;-66
2022/01/20 12:10:34;;;;;;;7.13;1.60;;;24.20;44.00;;;;;;5008804;28;89395;-66
2022/01/20 12:13:08;;;;;;;3.93;1.50;;;24.20;44.00;;;;;;5009791;28;89608;-66
2022/01/20 12:15:58;;;;;;;4.17;1.50;;;24.10;44.60;;;;;;5001555;28;88626;-66
2022/01/20 12:18:26;;;;;;;4.00;1.10;;;24.00;44.00;;;;;;5015698;28;88469;-67
2022/01/20 12:20:56;;;;;;;3.83;1.03;;;24.00;43.90;;;;;;5003668;28;89659;-67
2022/01/20 12:23:25;;;;;;;3.47;0.97;;;23.90;43.90;;;;;;5013086;28;92220;-67
2022/01/20 12:25:53;;;;;;;3.20;1.10;;;23.80;43.90;;;;;;5019097;28;88289;-67
2022/01/20 12:28:21;;;;;;;2.80;1.10;;;23.70;43.90;;;;;;5002177;28;88651;-67
2022/01/20 12:30:50;;;;;;;5.10;1.23;;;23.60;43.90;;;;;;5001046;28;89288;-66
2022/01/20 12:33:22;;;;;;;0.70;0.60;;;23.50;43.90;;;;;;5007418;28;88466;-67
2022/01/20 12:35:51;;;;;;;1.80;1.00;;;23.50;44.00;;;;;;5001109;28;88484;-67
2022/01/20 12:38:25;;;;;;;2.10;1.00;;;23.40;44.00;;;;;;5006781;28;88391;-67
2022/01/20 12:41:01;;;;;;;2.53;1.17;;;23.40;44.00;;;;;;5007335;28;89323;-67
2022/01/20 12:43:40;;;;;;;1.80;0.70;;;23.50;44.10;;;;;;5011090;28;88943;-67
2022/01/20 12:46:08;;;;;;;2.73;0.90;;;23.60;44.00;;;;;;5006683;28;88842;-66
2022/01/20 12:48:37;;;;;;;2.77;0.80;;;23.80;44.00;;;;;;5005252;28;88502;-66
2022/01/20 12:51:06;;;;;;;1.90;0.87;;;24.00;44.00;;;;;;5003995;28;90672;-67
2022/01/20 12:53:40;;;;;;;3.53;0.80;;;24.10;43.80;;;;;;5006676;28;88780;-66
2022/01/20 12:56:09;;;;;;;4.33;1.13;;;24.20;43.70;;;;;;5005311;28;88580;-66
2022/01/20 12:58:48;;;;;;;1.77;0.90;;;24.30;43.70;;;;;;5014080;28;88603;-67
2022/01/20 13:01:16;;;;;;;3.23;1.37;;;24.20;43.50;;;;;;5020720;28;89764;-67
2022/01/20 13:03:44;;;;;;;1.90;1.03;;;24.20;43.50;;;;;;5006660;28;90510;-67
2022/01/20 13:06:21;;;;;;;3.90;0.93;;;24.20;43.50;;;;;;5009854;28;88794;-66
2022/01/20 13:09:04;;;;;;;2.60;0.90;;;24.20;43.50;;;;;;5001685;28;88521;-66
2022/01/20 13:11:36;;;;;;;2.03;0.87;;;24.10;43.60;;;;;;5006772;28;88654;-66
2022/01/20 13:14:04;;;;;;;3.13;0.60;;;24.00;43.50;;;;;;5015410;28;89596;-67
2022/01/20 13:16:37;;;;;;;2.73;1.20;;;24.00;43.60;;;;;;5017388;28;89219;-68
2022/01/20 13:19:05;;;;;;;3.70;0.87;;;23.90;43.60;;;;;;5014128;28;88434;-67
2022/01/20 13:21:35;;;;;;;3.67;1.10;;;23.80;43.60;;;;;;5025206;28;89347;-66
2022/01/20 13:24:06;;;;;;;4.37;1.30;;;23.80;43.70;;;;;;5010607;28;89243;-67
2022/01/20 13:26:45;;;;;;;6.63;0.97;;;23.70;43.60;;;;;;5000349;28;88295;-66
2022/01/20 13:29:13;;;;;;;1.90;1.10;;;23.60;43.70;;;;;;5005354;28;88476;-66
2022/01/20 13:31:41;;;;;;;2.77;1.17;;;23.60;43.70;;;;;;5012582;28;90608;-66
2022/01/20 13:34:11;;;;;;;2.30;0.90;;;23.50;43.70;;;;;;5015752;28;88575;-66
2022/01/20 13:36:40;;;;;;;2.37;1.00;;;23.50;43.70;;;;;;5005969;28;88418;-67
2022/01/20 13:39:09;;;;;;;1.97;1.20;;;23.40;43.70;;;;;;5019137;28;88614;-66
2022/01/20 13:41:40;;;;;;;3.23;0.90;;;23.40;43.80;;;;;;4999472;28;91049;-67
2022/01/20 13:47:05;;;;;;;1.47;1.00;;;23.50;43.70;;;;;;5015611;28;89069;-66
2022/01/20 13:49:33;;;;;;;3.43;1.03;;;23.70;43.80;;;;;;5020524;28;88546;-66
2022/01/20 13:52:03;;;;;;;2.30;0.70;;;23.80;43.60;;;;;;5015184;28;90157;-67
2022/01/20 13:54:40;;;;;;;2.87;1.00;;;24.00;43.50;;;;;;5018358;28;90094;-67